createdAt,value
2019-03-10T00:01:18.449Z,1.33
2019-03-10T00:03:44.284Z,1.80
2019-03-10T00:06:10.097Z,1.30
2019-03-10T00:08:35.894Z,1.60
2019-03-10T00:11:01.817Z,1.63
2019-03-10T00:13:28.018Z,1.20
2019-03-10T00:15:53.822Z,1.30
2019-03-10T00:18:21.110Z,0.90
2019-03-10T00:20:46.926Z,1.77
2019-03-10T00:23:14.994Z,1.00
2019-03-10T00:25:41.122Z,1.17
2019-03-10T00:28:09.897Z,1.35
2019-03-10T00:30:35.829Z,1.55
2019-03-10T00:33:04.633Z,1.33
2019-03-10T00:35:30.455Z,0.93
2019-03-10T00:37:59.956Z,1.30
2019-03-10T00:40:53.474Z,1.37
2019-03-10T00:43:52.236Z,1.15
2019-03-10T00:46:21.846Z,1.32
2019-03-10T00:49:25.467Z,0.80
2019-03-10T00:52:16.149Z,1.37
2019-03-10T00:54:42.264Z,1.12
2019-03-10T00:57:08.059Z,1.07
2019-03-10T00:59:33.901Z,1.23
2019-03-10T01:01:59.982Z,0.83
2019-03-10T01:04:25.821Z,1.15
2019-03-10T01:06:52.113Z,0.93
2019-03-10T01:09:17.908Z,1.00
2019-03-10T01:11:44.310Z,1.07
2019-03-10T01:14:10.116Z,1.22
2019-03-10T01:16:36.421Z,1.30
2019-03-10T01:19:02.764Z,1.10
2019-03-10T01:21:28.759Z,1.25
2019-03-10T01:23:54.577Z,0.95
2019-03-10T01:26:20.378Z,0.80
2019-03-10T01:28:46.494Z,1.33
2019-03-10T01:31:22.107Z,1.10
2019-03-10T01:34:20.997Z,1.55
2019-03-10T01:36:46.797Z,0.70
2019-03-10T01:39:12.626Z,0.83
2019-03-10T01:41:41.436Z,0.97
2019-03-10T01:44:07.256Z,1.02
2019-03-10T01:46:36.095Z,1.10
2019-03-10T01:49:01.918Z,1.80
2019-03-10T01:51:30.796Z,1.07
2019-03-10T01:53:56.651Z,0.98
2019-03-10T01:56:25.453Z,0.90
2019-03-10T01:58:51.299Z,1.40
2019-03-10T02:01:17.106Z,1.20
2019-03-10T02:03:42.934Z,1.03
2019-03-10T02:06:08.988Z,0.97
2019-03-10T02:08:37.681Z,1.15
2019-03-10T02:11:03.961Z,1.07
2019-03-10T02:13:33.079Z,0.90
2019-03-10T02:15:58.968Z,0.85
2019-03-10T02:18:27.939Z,1.23
2019-03-10T02:20:53.803Z,0.95
2019-03-10T02:23:20.906Z,0.70
2019-03-10T02:25:46.738Z,0.82
2019-03-10T02:28:17.427Z,1.30
2019-03-10T02:30:43.276Z,0.90
2019-03-10T02:33:10.656Z,0.97
2019-03-10T02:35:36.490Z,0.80
2019-03-10T02:38:02.570Z,0.97
2019-03-10T02:40:28.651Z,1.05
2019-03-10T02:42:54.471Z,1.07
2019-03-10T02:45:23.272Z,1.00
2019-03-10T02:47:49.087Z,0.98
2019-03-10T02:50:18.411Z,1.23
2019-03-10T02:52:44.582Z,1.10
2019-03-10T02:55:11.718Z,0.95
2019-03-10T02:57:37.525Z,1.00
2019-03-10T03:00:09.057Z,0.90
2019-03-10T03:02:34.905Z,0.78
2019-03-10T03:05:00.775Z,0.80
2019-03-10T03:07:26.898Z,0.83
2019-03-10T03:09:55.767Z,1.07
2019-03-10T03:12:21.700Z,1.00
2019-03-10T03:14:47.791Z,1.23
2019-03-10T03:17:13.979Z,0.90
2019-03-10T03:19:39.801Z,0.70
2019-03-10T03:22:08.384Z,0.63
2019-03-10T03:24:34.197Z,0.88
2019-03-10T03:27:02.890Z,0.80
2019-03-10T03:29:28.701Z,0.70
2019-03-10T03:31:57.352Z,0.80
2019-03-10T03:34:23.164Z,0.70
2019-03-10T03:36:51.645Z,0.60
2019-03-10T03:39:21.120Z,0.70
2019-03-10T03:41:47.211Z,0.70
2019-03-10T03:44:13.039Z,0.50
2019-03-10T03:46:42.170Z,0.60
2019-03-10T03:49:08.302Z,0.88
2019-03-10T03:51:34.104Z,0.65
2019-03-10T03:54:00.220Z,0.80
2019-03-10T03:56:26.306Z,0.70
2019-03-10T03:58:54.896Z,0.60
2019-03-10T04:01:39.015Z,0.50
2019-03-10T04:04:05.123Z,0.60
2019-03-10T04:06:30.945Z,0.60
2019-03-10T04:08:57.035Z,0.70
2019-03-10T04:11:23.122Z,0.60
2019-03-10T04:13:49.184Z,0.50
2019-03-10T04:16:15.023Z,1.07
2019-03-10T04:18:40.870Z,0.60
2019-03-10T04:21:06.656Z,0.80
2019-03-10T04:23:32.466Z,0.70
2019-03-10T04:25:58.541Z,0.53
2019-03-10T04:28:24.641Z,0.68
2019-03-10T04:30:50.445Z,0.60
2019-03-10T04:33:16.236Z,0.67
2019-03-10T04:35:42.455Z,0.57
2019-03-10T04:38:08.520Z,0.60
2019-03-10T04:40:34.322Z,0.70
2019-03-10T04:43:00.159Z,0.70
2019-03-10T04:45:29.557Z,0.60
2019-03-10T04:47:55.387Z,0.60
2019-03-10T04:50:24.265Z,0.60
2019-03-10T04:52:50.116Z,0.60
2019-03-10T04:55:35.826Z,0.60
2019-03-10T04:58:10.110Z,0.70
2019-03-10T05:00:38.236Z,0.50
2019-03-10T05:03:04.054Z,0.70
2019-03-10T05:05:29.872Z,0.60
2019-03-10T05:07:55.689Z,0.67
2019-03-10T05:10:21.762Z,0.50
2019-03-10T05:12:47.567Z,1.50
2019-03-10T05:15:13.647Z,1.37
2019-03-10T05:17:39.744Z,0.60
2019-03-10T05:20:05.921Z,0.50
2019-03-10T05:22:33.412Z,0.68
2019-03-10T05:24:59.565Z,0.60
2019-03-10T05:27:25.367Z,0.60
2019-03-10T05:29:51.604Z,0.70
2019-03-10T05:32:17.403Z,0.70
2019-03-10T05:34:43.222Z,0.67
2019-03-10T05:37:09.335Z,0.60
2019-03-10T05:39:35.420Z,0.60
2019-03-10T05:42:01.255Z,0.80
2019-03-10T05:44:27.041Z,0.70
2019-03-10T05:46:52.847Z,0.60
2019-03-10T05:49:18.693Z,0.60
2019-03-10T05:51:44.511Z,0.70
2019-03-10T05:54:10.573Z,0.60
2019-03-10T05:56:36.390Z,0.70
2019-03-10T05:59:02.187Z,0.80
2019-03-10T06:01:28.034Z,1.40
2019-03-10T06:03:53.854Z,1.00
2019-03-10T06:06:19.893Z,0.90
2019-03-10T06:08:48.537Z,0.95
2019-03-10T06:11:14.575Z,0.70
2019-03-10T06:13:43.466Z,1.10
2019-03-10T06:16:09.323Z,0.80
2019-03-10T06:18:35.113Z,0.77
2019-03-10T06:21:01.058Z,1.10
2019-03-10T06:23:27.159Z,0.60
2019-03-10T06:25:54.165Z,1.25
2019-03-10T06:28:19.999Z,1.02
2019-03-10T06:30:50.513Z,0.83
2019-03-10T06:33:16.371Z,0.70
2019-03-10T06:35:45.058Z,0.70
2019-03-10T06:38:11.135Z,0.70
2019-03-10T06:40:40.149Z,0.65
2019-03-10T06:43:06.003Z,0.82
2019-03-10T06:45:33.385Z,0.80
2019-03-10T06:47:59.195Z,0.90
2019-03-10T06:50:28.259Z,0.80
2019-03-10T06:52:54.072Z,0.70
2019-03-10T06:55:19.905Z,0.70
2019-03-10T06:57:46.048Z,1.27
2019-03-10T07:00:12.834Z,0.57
2019-03-10T07:02:41.988Z,0.85
2019-03-10T07:05:10.318Z,0.50
2019-03-10T07:07:36.140Z,0.60
2019-03-10T07:10:04.956Z,0.70
2019-03-10T07:12:31.046Z,0.85
2019-03-10T07:14:56.853Z,0.70
2019-03-10T07:17:25.806Z,0.83
2019-03-10T07:19:51.756Z,1.30
2019-03-10T07:22:20.774Z,0.83
2019-03-10T07:24:46.750Z,0.70
2019-03-10T07:27:15.605Z,0.60
2019-03-10T07:29:43.328Z,0.50
2019-03-10T07:32:23.383Z,0.57
2019-03-10T07:34:51.205Z,0.70
2019-03-10T07:37:24.693Z,0.70
2019-03-10T07:39:52.453Z,0.50
2019-03-10T07:45:11.829Z,0.60
2019-03-10T07:47:56.201Z,0.72
2019-03-10T07:50:33.112Z,0.70
2019-03-10T07:53:00.853Z,0.50
2019-03-10T07:55:37.728Z,0.65
2019-03-10T07:58:20.932Z,0.90
2019-03-10T08:00:48.621Z,0.90
2019-03-10T08:03:31.823Z,1.20
2019-03-10T08:06:08.890Z,0.60
2019-03-10T08:08:36.646Z,0.50
2019-03-10T08:11:16.689Z,0.55
2019-03-10T08:13:44.523Z,0.82
2019-03-10T08:16:28.816Z,0.70
2019-03-10T08:18:56.799Z,0.60
2019-03-10T08:21:24.543Z,0.60
2019-03-10T08:24:09.154Z,0.60
2019-03-10T08:26:36.858Z,0.50
2019-03-10T08:29:04.590Z,0.65
2019-03-10T08:31:32.318Z,0.70
2019-03-10T08:34:18.282Z,0.62
2019-03-10T08:37:03.005Z,0.50
2019-03-10T08:39:39.819Z,0.60
2019-03-10T08:42:20.722Z,0.60
2019-03-10T08:44:51.558Z,0.50
2019-03-10T08:47:22.290Z,0.60
2019-03-10T08:49:49.973Z,0.60
2019-03-10T08:52:20.547Z,0.85
2019-03-10T08:54:51.196Z,0.70
2019-03-10T08:57:28.313Z,0.60
2019-03-10T09:00:12.933Z,0.50
2019-03-10T09:02:57.645Z,0.50
2019-03-10T09:05:37.824Z,0.70
2019-03-10T09:08:11.265Z,0.70
2019-03-10T09:10:38.994Z,0.70
2019-03-10T09:13:06.935Z,0.50
2019-03-10T09:15:41.237Z,0.50
2019-03-10T09:18:18.710Z,0.60
2019-03-10T09:20:55.855Z,0.50
2019-03-10T09:23:40.518Z,0.53
2019-03-10T09:26:14.285Z,0.70
2019-03-10T09:29:00.336Z,0.70
2019-03-10T09:31:28.058Z,0.60
2019-03-10T09:33:58.820Z,0.60
2019-03-10T09:36:26.555Z,0.60
2019-03-10T09:38:54.267Z,0.90
2019-03-10T09:41:34.197Z,0.50
2019-03-10T09:44:14.480Z,0.50
2019-03-10T09:46:59.165Z,0.55
2019-03-10T09:49:30.096Z,0.50
2019-03-10T09:52:03.616Z,0.60
2019-03-10T09:54:37.431Z,0.53
2019-03-10T09:57:11.050Z,0.60
2019-03-10T09:59:44.977Z,0.50
2019-03-10T10:02:27.934Z,0.70
2019-03-10T10:05:01.261Z,0.50
2019-03-10T10:07:29.103Z,0.50
2019-03-10T10:09:59.416Z,0.57
2019-03-10T10:12:27.137Z,0.50
2019-03-10T10:15:07.448Z,0.60
2019-03-10T10:17:52.051Z,0.50
2019-03-10T10:20:37.741Z,0.50
2019-03-10T10:23:20.560Z,0.40
2019-03-10T10:25:54.339Z,0.65
2019-03-10T10:28:34.116Z,0.50
2019-03-10T10:31:14.146Z,0.60
2019-03-10T10:33:44.650Z,0.40
2019-03-10T10:36:27.682Z,0.50
2019-03-10T10:38:55.404Z,0.50
2019-03-10T10:41:23.148Z,0.60
2019-03-10T10:43:50.859Z,0.60
2019-03-10T10:46:21.468Z,0.55
2019-03-10T10:48:55.338Z,0.60
2019-03-10T10:51:40.292Z,0.50
2019-03-10T10:54:08.032Z,0.50
2019-03-10T10:56:54.079Z,0.50
2019-03-10T10:59:34.306Z,0.53
2019-03-10T11:02:02.022Z,0.50
2019-03-10T11:04:30.009Z,0.70
2019-03-10T11:07:07.053Z,0.50
2019-03-10T11:09:51.723Z,0.50
2019-03-10T11:12:31.464Z,0.60
2019-03-10T11:15:08.036Z,0.50
2019-03-10T11:17:35.768Z,0.60
2019-03-10T11:20:10.569Z,0.50
2019-03-10T11:22:47.268Z,0.50
2019-03-10T11:25:15.037Z,0.40
2019-03-10T11:27:48.854Z,0.50
2019-03-10T11:30:16.704Z,0.50
2019-03-10T11:32:47.722Z,0.60
2019-03-10T11:35:24.018Z,0.50
2019-03-10T11:38:08.297Z,0.50
2019-03-10T11:40:47.610Z,0.40
2019-03-10T11:43:30.726Z,0.50
2019-03-10T11:46:33.107Z,0.50
2019-03-10T11:49:17.420Z,0.50
2019-03-10T11:51:54.139Z,0.50
2019-03-10T11:54:24.426Z,0.40
2019-03-10T11:57:10.713Z,0.50
2019-03-10T11:59:38.429Z,0.50
2019-03-10T12:02:18.228Z,0.50
2019-03-10T12:05:00.983Z,0.70
2019-03-10T12:07:34.971Z,0.50
2019-03-10T12:10:01.077Z,0.50
2019-03-10T12:12:26.887Z,0.40
2019-03-10T12:14:52.727Z,0.40
2019-03-10T12:17:18.799Z,0.47
2019-03-10T12:19:44.616Z,0.43
2019-03-10T12:22:10.820Z,0.50
2019-03-10T12:24:36.721Z,0.50
2019-03-10T12:27:02.725Z,0.70
2019-03-10T12:29:28.907Z,0.50
2019-03-10T12:31:54.698Z,0.40
2019-03-10T12:34:20.846Z,0.40
2019-03-10T12:36:46.954Z,0.50
2019-03-10T12:39:13.003Z,1.17
2019-03-10T12:41:39.093Z,0.50
2019-03-10T12:44:05.186Z,0.50
2019-03-10T12:46:31.026Z,0.40
2019-03-10T12:48:56.864Z,0.47
2019-03-10T12:51:22.673Z,0.40
2019-03-10T12:53:48.464Z,0.50
2019-03-10T12:56:14.289Z,0.60
2019-03-10T12:58:40.139Z,0.70
2019-03-10T13:01:06.935Z,0.70
2019-03-10T13:03:32.991Z,0.60
2019-03-10T13:05:58.753Z,0.70
2019-03-10T13:08:24.593Z,0.60
2019-03-10T13:10:50.457Z,0.70
2019-03-10T13:13:16.254Z,0.73
2019-03-10T13:15:42.044Z,0.70
2019-03-10T13:18:07.866Z,0.60
2019-03-10T13:20:34.214Z,0.60
2019-03-10T13:23:00.330Z,0.70
2019-03-10T13:25:26.116Z,0.60
2019-03-10T13:27:52.339Z,0.87
2019-03-10T13:30:18.083Z,0.63
2019-03-10T13:32:44.556Z,0.60
2019-03-10T13:35:10.734Z,0.80
2019-03-10T13:37:36.529Z,0.70
2019-03-10T13:40:04.755Z,0.60
2019-03-10T13:42:30.655Z,0.53
2019-03-10T13:44:56.477Z,0.73
2019-03-10T13:47:22.395Z,1.60
2019-03-10T13:49:48.574Z,1.30
2019-03-10T13:52:14.429Z,0.70
2019-03-10T13:54:40.516Z,0.70
2019-03-10T13:57:06.550Z,0.87
2019-03-10T13:59:32.473Z,0.90
2019-03-10T14:01:58.299Z,1.43
2019-03-10T14:04:24.116Z,1.10
2019-03-10T14:06:49.988Z,1.43
2019-03-10T14:09:15.807Z,1.20
2019-03-10T14:11:41.596Z,1.10
2019-03-10T14:14:07.422Z,1.13
2019-03-10T14:16:33.334Z,1.30
2019-03-10T14:18:59.162Z,1.30
2019-03-10T14:21:24.975Z,0.93
2019-03-10T14:23:50.804Z,1.10
2019-03-10T14:26:16.600Z,1.10
2019-03-10T14:28:42.421Z,1.40
2019-03-10T14:31:08.258Z,0.90
2019-03-10T14:33:34.070Z,1.00
2019-03-10T14:35:59.870Z,1.10
2019-03-10T14:38:28.432Z,1.10
2019-03-10T14:40:54.540Z,1.10
2019-03-10T14:43:23.375Z,1.30
2019-03-10T14:45:49.164Z,1.50
2019-03-10T14:48:17.831Z,1.63
2019-03-10T14:50:45.860Z,1.07
2019-03-10T14:53:11.356Z,1.00
2019-03-10T14:55:37.148Z,0.97
2019-03-10T14:58:03.001Z,1.93
2019-03-10T15:00:29.313Z,1.00
2019-03-10T15:02:55.243Z,1.07
2019-03-10T15:05:24.445Z,1.60
2019-03-10T15:07:50.300Z,2.00
2019-03-10T15:10:19.511Z,1.27
2019-03-10T15:12:45.683Z,1.23
2019-03-10T15:15:22.478Z,1.10
2019-03-10T15:17:44.739Z,1.40
2019-03-10T15:20:12.840Z,1.53
2019-03-10T15:22:39.123Z,1.70
2019-03-10T15:25:11.116Z,1.40
2019-03-10T15:27:37.316Z,2.80
2019-03-10T15:30:13.056Z,1.62
2019-03-10T15:32:39.166Z,2.40
2019-03-10T15:35:07.416Z,1.55
2019-03-10T15:37:33.527Z,1.30
2019-03-10T15:39:59.332Z,2.27
2019-03-10T15:42:25.423Z,2.40
2019-03-10T15:44:51.491Z,2.17
2019-03-10T15:47:17.331Z,1.70
2019-03-10T15:49:43.173Z,2.03
2019-03-10T15:52:09.011Z,2.00
2019-03-10T15:54:34.846Z,1.33
2019-03-10T15:57:00.676Z,2.17
2019-03-10T15:59:26.759Z,1.80
2019-03-10T16:01:52.587Z,1.20
2019-03-10T16:04:19.308Z,1.73
2019-03-10T16:06:45.555Z,2.05
2019-03-10T16:09:11.548Z,1.60
2019-03-10T16:11:37.392Z,2.20
2019-03-10T16:14:03.205Z,1.53
2019-03-10T16:16:29.013Z,3.77
2019-03-10T16:18:55.124Z,1.67
2019-03-10T16:21:20.974Z,1.30
2019-03-10T16:23:49.557Z,1.90
2019-03-10T16:26:15.389Z,1.72
2019-03-10T16:28:44.760Z,1.70
2019-03-10T16:31:10.556Z,1.65
2019-03-10T16:33:39.395Z,1.33
2019-03-10T16:36:05.590Z,2.35
2019-03-10T16:38:34.687Z,1.65
2019-03-10T16:41:00.528Z,1.80
2019-03-10T16:43:26.632Z,1.00
2019-03-10T16:45:52.432Z,1.45
2019-03-10T16:48:18.361Z,1.87
2019-03-10T16:50:47.621Z,1.43
2019-03-10T16:53:13.416Z,1.45
2019-03-10T16:55:42.246Z,1.50
2019-03-10T16:58:08.349Z,1.50
2019-03-10T17:00:34.183Z,1.62
2019-03-10T17:03:00.336Z,2.10
2019-03-10T17:05:28.488Z,1.50
2019-03-10T17:07:54.776Z,1.30
2019-03-10T17:10:25.739Z,1.42
2019-03-10T17:12:51.679Z,1.70
2019-03-10T17:15:21.539Z,1.77
2019-03-10T17:17:47.344Z,2.52
2019-03-10T17:20:17.044Z,1.53
2019-03-10T17:22:42.982Z,1.30
2019-03-10T17:25:10.215Z,1.30
2019-03-10T17:27:36.138Z,1.00
2019-03-10T17:30:04.239Z,1.83
2019-03-10T17:32:30.081Z,1.47
2019-03-10T17:34:55.980Z,2.37
2019-03-10T17:37:21.795Z,1.70
2019-03-10T17:39:47.616Z,1.20
2019-03-10T17:42:16.494Z,2.10
2019-03-10T17:44:43.216Z,1.45
2019-03-10T17:47:09.057Z,1.37
2019-03-10T17:49:34.894Z,1.87
2019-03-10T17:52:13.779Z,3.23
2019-03-10T17:54:31.356Z,1.07
2019-03-10T17:56:57.186Z,1.73
2019-03-10T17:59:22.983Z,2.80
2019-03-10T18:01:49.070Z,1.80
2019-03-10T18:04:17.616Z,1.32
2019-03-10T18:06:43.476Z,1.40
2019-03-10T18:09:10.866Z,1.40
2019-03-10T18:11:36.687Z,1.12
2019-03-10T18:14:05.782Z,1.57
2019-03-10T18:16:33.589Z,1.37
2019-03-10T18:19:02.344Z,5.92
2019-03-10T18:21:28.146Z,1.35
2019-03-10T18:23:57.042Z,1.63
2019-03-10T18:26:22.869Z,1.75
2019-03-10T18:28:51.679Z,1.50
2019-03-10T18:31:17.497Z,1.60
2019-03-10T18:33:43.288Z,1.73
2019-03-10T18:36:09.103Z,1.13
2019-03-10T18:38:35.162Z,1.20
2019-03-10T18:41:01.251Z,0.85
2019-03-10T18:43:27.309Z,1.10
2019-03-10T18:45:56.187Z,1.37
2019-03-10T18:48:22.087Z,1.05
2019-03-10T18:50:51.043Z,1.57
2019-03-10T18:53:16.892Z,1.40
2019-03-10T18:55:45.459Z,1.30
2019-03-10T18:58:11.278Z,1.15
2019-03-10T19:00:42.044Z,1.17
2019-03-10T19:04:03.989Z,1.27
2019-03-10T19:06:29.799Z,0.72
2019-03-10T19:08:55.592Z,1.30
2019-03-10T19:11:21.699Z,1.30
2019-03-10T19:13:47.520Z,1.55
2019-03-10T19:16:13.310Z,1.10
2019-03-10T19:18:39.140Z,1.00
2019-03-10T19:21:04.916Z,1.67
2019-03-10T19:23:30.739Z,2.23
2019-03-10T19:25:56.831Z,1.20
2019-03-10T19:28:22.629Z,1.40
2019-03-10T19:30:48.496Z,1.10
2019-03-10T19:33:14.354Z,1.70
2019-03-10T19:35:40.176Z,1.40
2019-03-10T19:38:06.277Z,1.37
2019-03-10T19:40:32.086Z,1.20
2019-03-10T19:42:57.910Z,1.10
2019-03-10T19:45:23.715Z,1.33
2019-03-10T19:47:49.605Z,2.10
2019-03-10T19:50:27.222Z,1.67
2019-03-10T19:52:53.622Z,1.10
2019-03-10T19:55:19.534Z,1.40
2019-03-10T19:57:45.348Z,1.33
2019-03-10T20:00:19.154Z,2.00
2019-03-10T20:02:45.052Z,2.10
2019-03-10T20:05:11.720Z,1.80
2019-03-10T20:07:37.519Z,1.35
2019-03-10T20:10:07.158Z,1.80
2019-03-10T20:12:32.949Z,1.80
2019-03-10T20:14:58.780Z,2.40
2019-03-10T20:17:24.652Z,2.07
2019-03-10T20:19:50.439Z,2.43
2019-03-10T20:22:16.258Z,2.43
2019-03-10T20:24:42.108Z,2.67
2019-03-10T20:27:07.927Z,1.63
2019-03-10T20:29:33.720Z,1.70
2019-03-10T20:31:59.553Z,4.33
2019-03-10T20:34:25.348Z,1.50
2019-03-10T20:36:52.257Z,1.63
2019-03-10T20:39:18.174Z,1.40
2019-03-10T20:41:44.020Z,2.30
2019-03-10T20:44:09.805Z,1.60
2019-03-10T20:46:35.959Z,1.40
2019-03-10T20:49:01.771Z,1.87
2019-03-10T20:51:27.625Z,1.20
2019-03-10T20:53:53.440Z,2.03
2019-03-10T20:56:19.259Z,1.70
2019-03-10T20:58:45.102Z,1.50
2019-03-10T21:01:10.899Z,1.50
2019-03-10T21:03:36.749Z,2.63
2019-03-10T21:06:02.566Z,2.30
2019-03-10T21:08:28.404Z,1.90
2019-03-10T21:10:54.499Z,3.00
2019-03-10T21:13:20.312Z,1.30
2019-03-10T21:15:46.121Z,1.80
2019-03-10T21:18:12.200Z,2.50
2019-03-10T21:20:38.262Z,1.45
2019-03-10T21:23:04.071Z,1.22
2019-03-10T21:25:30.408Z,2.10
2019-03-10T21:27:56.236Z,2.00
2019-03-10T21:30:30.496Z,1.73
2019-03-10T21:32:56.301Z,1.70
2019-03-10T21:35:22.105Z,1.43
2019-03-10T21:37:47.918Z,1.03
2019-03-10T21:40:26.091Z,1.70
2019-03-10T21:42:52.193Z,1.45
2019-03-10T21:45:18.029Z,1.27
2019-03-10T21:47:43.845Z,1.60
2019-03-10T21:50:17.105Z,2.60
2019-03-10T21:52:43.217Z,2.02
2019-03-10T21:55:10.608Z,1.55
2019-03-10T21:57:36.438Z,1.62
2019-03-10T22:00:04.931Z,1.80
2019-03-10T22:02:31.023Z,2.02
2019-03-10T22:04:56.878Z,1.75
2019-03-10T22:07:22.675Z,1.47
2019-03-10T22:09:48.510Z,1.43
2019-03-10T22:12:14.307Z,1.97
2019-03-10T22:14:40.141Z,1.53
2019-03-10T22:17:05.929Z,2.03
2019-03-10T22:19:32.013Z,3.60
2019-03-10T22:21:57.840Z,3.62
2019-03-10T22:24:23.661Z,2.10
2019-03-10T22:26:49.699Z,1.90
2019-03-10T22:29:15.781Z,1.30
2019-03-10T22:31:41.887Z,4.20
2019-03-10T22:34:07.970Z,1.32
2019-03-10T22:36:33.758Z,2.55
2019-03-10T22:38:59.654Z,1.57
2019-03-10T22:41:25.788Z,2.80
2019-03-10T22:43:51.834Z,1.42
2019-03-10T22:46:17.673Z,1.98
2019-03-10T22:48:43.465Z,2.70
2019-03-10T22:51:09.257Z,2.63
2019-03-10T22:53:35.095Z,2.90
2019-03-10T22:56:00.916Z,2.60
2019-03-10T22:58:27.039Z,2.43
2019-03-10T23:00:54.361Z,1.82
2019-03-10T23:03:20.191Z,1.07
2019-03-10T23:05:46.118Z,2.10
2019-03-10T23:08:12.305Z,3.30
2019-03-10T23:10:38.140Z,2.22
2019-03-10T23:13:04.450Z,2.13
2019-03-10T23:15:30.383Z,2.25
2019-03-10T23:17:58.922Z,2.27
2019-03-10T23:20:24.971Z,1.50
2019-03-10T23:22:53.848Z,1.92
2019-03-10T23:25:19.810Z,2.22
2019-03-10T23:27:45.917Z,2.37
2019-03-10T23:30:34.659Z,1.75
2019-03-10T23:33:00.522Z,2.55
2019-03-10T23:35:26.347Z,1.20
2019-03-10T23:37:52.568Z,1.90
2019-03-10T23:40:18.376Z,1.50
2019-03-10T23:42:44.275Z,2.00
2019-03-10T23:45:12.070Z,1.70
2019-03-10T23:47:37.865Z,1.87
2019-03-10T23:50:05.923Z,2.00
2019-03-10T23:52:31.981Z,1.87
2019-03-10T23:54:57.802Z,1.65
2019-03-10T23:57:23.591Z,2.33
2019-03-10T23:59:49.655Z,1.53
